createdAt,value
2022-08-05T00:00:54.807Z,50.51
2022-08-05T00:01:54.774Z,50.51
2022-08-05T00:02:55.778Z,50.60
2022-08-05T00:03:54.711Z,50.51
2022-08-05T00:04:55.174Z,50.81
2022-08-05T00:06:04.959Z,50.90
2022-08-05T00:06:55.680Z,51.20
2022-08-05T00:08:00.082Z,51.23
2022-08-05T00:08:55.663Z,51.32
2022-08-05T00:09:54.698Z,51.32
2022-08-05T00:10:54.632Z,51.42
2022-08-05T00:11:55.769Z,51.42
2022-08-05T00:12:56.841Z,51.42
2022-08-05T00:13:54.609Z,51.92
2022-08-05T00:14:54.589Z,51.82
2022-08-05T00:16:00.360Z,52.12
2022-08-05T00:16:55.559Z,52.31
2022-08-05T00:17:54.540Z,52.22
2022-08-05T00:18:54.541Z,52.31
2022-08-05T00:20:01.789Z,52.04
2022-08-05T00:20:55.501Z,52.22
2022-08-05T00:21:54.496Z,52.12
2022-08-05T00:22:58.451Z,52.14
2022-08-05T00:24:09.917Z,52.14
2022-08-05T00:24:55.449Z,52.14
2022-08-05T00:25:54.451Z,52.34
2022-08-05T00:26:54.441Z,52.34
2022-08-05T00:27:54.419Z,52.34
2022-08-05T00:28:54.422Z,52.44
2022-08-05T00:29:54.384Z,52.44
2022-08-05T00:30:54.392Z,52.54
2022-08-05T00:32:12.724Z,52.54
2022-08-05T00:32:55.357Z,52.54
2022-08-05T00:34:56.408Z,52.54
2022-08-05T00:35:06.826Z,52.54
2022-08-05T00:36:14.988Z,52.44
2022-08-05T00:37:09.839Z,52.54
2022-08-05T00:37:55.288Z,52.44
2022-08-05T00:38:54.331Z,52.54
2022-08-05T00:39:58.469Z,52.64
2022-08-05T00:40:54.240Z,53.03
2022-08-05T00:41:55.628Z,53.56
2022-08-05T00:42:54.308Z,53.06
2022-08-05T00:43:54.208Z,53.75
2022-08-05T00:44:54.191Z,53.66
2022-08-05T00:45:54.182Z,53.16
2022-08-05T00:47:02.059Z,53.45
2022-08-05T00:47:57.812Z,53.26
2022-08-05T00:48:55.139Z,53.06
2022-08-05T00:49:54.130Z,53.56
2022-08-05T00:50:54.180Z,53.75
2022-08-05T00:51:54.118Z,53.75
2022-08-05T00:52:55.160Z,53.36
2022-08-05T00:54:02.658Z,54.05
2022-08-05T00:54:55.070Z,54.05
2022-08-05T00:55:54.154Z,54.38
2022-08-05T00:56:54.079Z,54.68
2022-08-05T00:57:58.063Z,55.17
2022-08-05T00:58:55.079Z,55.00
2022-08-05T00:59:54.005Z,55.00
2022-08-05T01:00:54.106Z,54.90
2022-08-05T01:01:54.031Z,54.21
2022-08-05T01:02:53.984Z,54.70
2022-08-05T01:03:53.952Z,54.90
2022-08-05T01:04:54.025Z,55.10
2022-08-05T01:05:54.375Z,55.10
2022-08-05T01:06:53.928Z,55.40
2022-08-05T01:08:40.803Z,55.49
2022-08-05T01:08:54.910Z,55.59
2022-08-05T01:09:55.455Z,55.69
2022-08-05T01:10:53.873Z,55.82
2022-08-05T01:11:53.852Z,55.91
2022-08-05T01:12:54.277Z,56.12
2022-08-05T01:13:58.861Z,56.21
2022-08-05T01:14:53.825Z,56.41
2022-08-05T01:15:53.803Z,56.41
2022-08-05T01:16:53.790Z,56.81
2022-08-05T01:17:54.314Z,57.53
2022-08-05T01:18:56.379Z,57.83
2022-08-05T01:20:00.977Z,57.93
2022-08-05T01:20:54.742Z,57.93
2022-08-05T01:21:53.722Z,58.73
2022-08-05T01:22:53.711Z,58.83
2022-08-05T01:23:53.703Z,59.12
2022-08-05T01:24:53.722Z,59.12
2022-08-05T01:25:54.076Z,59.22
2022-08-05T01:26:53.670Z,59.62
2022-08-05T01:27:55.905Z,59.82
2022-08-05T01:28:53.641Z,59.92
2022-08-05T01:29:53.631Z,59.92
2022-08-05T01:30:55.360Z,60.02
2022-08-05T01:31:53.597Z,60.02
2022-08-05T01:32:53.589Z,60.22
2022-08-05T01:33:53.904Z,60.61
2022-08-05T01:34:53.568Z,60.82
2022-08-05T01:35:53.599Z,60.91
2022-08-05T01:36:53.536Z,60.91
2022-08-05T01:37:54.676Z,61.21
2022-08-05T01:38:53.577Z,61.51
2022-08-05T01:39:53.539Z,61.51
2022-08-05T01:40:53.500Z,61.80
2022-08-05T01:41:53.505Z,62.23
2022-08-05T01:42:53.460Z,62.43
2022-08-05T01:43:53.442Z,62.93
2022-08-05T01:44:54.233Z,63.13
2022-08-05T01:45:56.409Z,63.13
2022-08-05T01:46:53.410Z,63.13
2022-08-05T01:47:54.482Z,63.33
2022-08-05T01:48:53.378Z,63.43
2022-08-05T01:50:01.796Z,63.82
2022-08-05T01:50:54.379Z,64.15
2022-08-05T01:51:53.341Z,64.25
2022-08-05T01:52:53.331Z,64.45
2022-08-05T01:53:58.004Z,64.55
2022-08-05T01:54:54.365Z,64.55
2022-08-05T01:55:53.309Z,64.55
2022-08-05T01:58:09.563Z,65.05
2022-08-05T01:58:12.460Z,64.95
2022-08-05T01:58:54.260Z,65.15
2022-08-05T01:59:53.250Z,65.35
2022-08-05T02:00:53.261Z,65.45
2022-08-05T02:01:54.770Z,65.55
2022-08-05T02:02:55.229Z,65.55
2022-08-05T02:03:53.236Z,65.64
2022-08-05T02:04:53.219Z,65.68
2022-08-05T02:05:53.388Z,65.64
2022-08-05T02:06:53.180Z,65.78
2022-08-05T02:08:00.233Z,65.78
2022-08-05T02:08:58.221Z,65.88
2022-08-05T02:09:53.107Z,65.88
2022-08-05T02:10:53.101Z,65.88
2022-08-05T02:11:53.098Z,65.68
2022-08-05T02:12:53.092Z,65.78
2022-08-05T02:13:53.762Z,65.78
2022-08-05T02:14:53.243Z,65.78
2022-08-05T02:15:53.037Z,65.78
2022-08-05T02:16:53.384Z,65.78
2022-08-05T02:18:31.170Z,65.78
2022-08-05T02:18:54.002Z,65.68
2022-08-05T02:19:53.008Z,65.78
2022-08-05T02:20:52.979Z,65.88
2022-08-05T02:21:52.959Z,65.88
2022-08-05T02:22:52.954Z,65.78
2022-08-05T02:23:52.937Z,65.78
2022-08-05T02:24:52.918Z,65.88
2022-08-05T02:25:52.910Z,66.08
2022-08-05T02:26:54.531Z,66.08
2022-08-05T02:27:59.289Z,65.98
2022-08-05T02:28:53.868Z,65.98
2022-08-05T02:29:58.459Z,65.98
2022-08-05T02:30:54.368Z,65.98
2022-08-05T02:31:52.847Z,65.98
2022-08-05T02:32:52.833Z,66.08
2022-08-05T02:33:57.358Z,65.98
2022-08-05T02:34:54.761Z,65.98
2022-08-05T02:36:00.594Z,65.88
2022-08-05T02:36:53.794Z,65.88
2022-08-05T02:37:54.055Z,65.78
2022-08-05T02:38:53.853Z,65.88
2022-08-05T02:39:52.825Z,65.88
2022-08-05T02:40:52.723Z,65.98
2022-08-05T02:42:00.440Z,66.01
2022-08-05T02:42:54.014Z,66.01
2022-08-05T02:44:06.432Z,66.20
2022-08-05T02:44:53.684Z,66.11
2022-08-05T02:45:53.949Z,66.11
2022-08-05T02:46:59.752Z,66.20
2022-08-05T02:48:06.999Z,66.20
2022-08-05T02:48:53.629Z,66.20
2022-08-05T02:49:52.616Z,66.31
2022-08-05T02:50:52.608Z,66.31
2022-08-05T02:52:03.987Z,66.31
2022-08-05T02:52:53.584Z,66.31
2022-08-05T02:53:54.712Z,66.31
2022-08-05T02:54:52.549Z,66.20
2022-08-05T02:56:00.004Z,66.41
2022-08-05T02:56:53.527Z,66.41
2022-08-05T02:58:11.080Z,66.41
2022-08-05T02:58:53.500Z,66.50
2022-08-05T02:59:52.490Z,66.50
2022-08-05T03:00:52.474Z,66.61
2022-08-05T03:01:52.487Z,66.61
2022-08-05T03:02:52.506Z,66.71
2022-08-05T03:04:02.543Z,66.71
2022-08-05T03:04:53.517Z,66.80
2022-08-05T03:06:53.646Z,66.80
2022-08-05T03:06:59.405Z,66.80
2022-08-05T03:08:04.565Z,66.80
2022-08-05T03:08:53.395Z,66.91
2022-08-05T03:09:52.360Z,66.80
2022-08-05T03:11:53.641Z,66.80
2022-08-05T03:11:58.025Z,66.80
2022-08-05T03:12:53.331Z,66.80
2022-08-05T03:14:03.084Z,66.80
2022-08-05T03:14:53.298Z,66.71
2022-08-05T03:15:52.288Z,66.71
2022-08-05T03:16:53.517Z,66.71
2022-08-05T03:17:54.150Z,66.80
2022-08-05T03:18:52.263Z,66.61
2022-08-05T03:19:52.261Z,66.61
2022-08-05T03:20:52.224Z,66.61
2022-08-05T03:21:52.237Z,66.61
2022-08-05T03:22:52.198Z,66.50
2022-08-05T03:23:52.201Z,66.61
2022-08-05T03:24:52.355Z,66.50
2022-08-05T03:26:04.922Z,66.61
2022-08-05T03:26:53.167Z,66.61
2022-08-05T03:27:59.381Z,66.71
2022-08-05T03:28:53.143Z,66.71
2022-08-05T03:30:07.553Z,66.71
2022-08-05T03:30:53.109Z,66.80
2022-08-05T03:31:57.006Z,66.80
2022-08-05T03:32:53.076Z,66.91
2022-08-05T03:33:52.961Z,66.91
2022-08-05T03:34:52.049Z,66.91
2022-08-05T03:35:52.049Z,66.91
2022-08-05T03:36:52.322Z,67.00
2022-08-05T03:37:52.007Z,67.00
2022-08-05T03:38:54.201Z,67.00
2022-08-05T03:39:58.600Z,67.00
2022-08-05T03:40:53.030Z,67.00
2022-08-05T03:41:52.629Z,67.00
2022-08-05T03:42:52.901Z,67.10
2022-08-05T03:44:08.930Z,67.10
2022-08-05T03:44:52.917Z,67.10
2022-08-05T03:45:58.117Z,67.10
2022-08-05T03:46:52.937Z,67.00
2022-08-05T03:47:51.879Z,66.91
2022-08-05T03:48:52.898Z,67.00
2022-08-05T03:49:52.536Z,66.80
2022-08-05T03:50:51.836Z,66.80
2022-08-05T03:52:36.558Z,66.80
2022-08-05T03:55:00.017Z,66.80
2022-08-05T03:55:52.227Z,66.80
2022-08-05T03:55:52.939Z,66.80
2022-08-05T03:56:11.707Z,66.80
2022-08-05T03:56:52.773Z,66.71
2022-08-05T03:57:51.747Z,66.61
2022-08-05T03:58:51.735Z,66.61
2022-08-05T03:59:54.834Z,66.61
2022-08-05T04:00:51.748Z,66.50
2022-08-05T04:01:51.896Z,66.50
2022-08-05T04:02:57.532Z,66.61
2022-08-05T04:04:08.823Z,66.61
2022-08-05T04:04:52.666Z,66.61
2022-08-05T04:05:51.649Z,66.71
2022-08-05T04:06:51.788Z,66.71
2022-08-05T04:07:58.701Z,66.61
2022-08-05T04:08:52.618Z,66.50
2022-08-05T04:09:53.120Z,66.47
2022-08-05T04:10:51.596Z,66.41
2022-08-05T04:11:52.746Z,66.38
2022-08-05T04:12:51.566Z,66.38
2022-08-05T04:13:53.417Z,66.27
2022-08-05T04:14:51.534Z,66.38
2022-08-05T04:16:02.858Z,66.27
2022-08-05T04:16:52.507Z,66.17
2022-08-05T04:17:57.180Z,66.08
2022-08-05T04:18:54.373Z,66.17
2022-08-05T04:19:54.455Z,66.27
2022-08-05T04:20:52.461Z,66.17
2022-08-05T04:22:09.301Z,65.98
2022-08-05T04:22:52.439Z,66.08
2022-08-05T04:24:04.861Z,66.08
2022-08-05T04:24:53.153Z,66.27
2022-08-05T04:26:00.310Z,66.17
2022-08-05T04:26:52.386Z,66.27
2022-08-05T04:27:57.200Z,66.17
2022-08-05T04:28:52.376Z,66.27
2022-08-05T04:29:51.351Z,66.38
2022-08-05T04:30:51.339Z,66.27
2022-08-05T04:31:51.328Z,66.38
2022-08-05T04:32:51.319Z,66.27
2022-08-05T04:34:19.125Z,66.38
2022-08-05T04:34:52.295Z,66.27
2022-08-05T04:36:16.798Z,66.27
2022-08-05T04:36:52.329Z,66.38
2022-08-05T04:38:01.430Z,66.35
2022-08-05T04:38:52.253Z,66.24
2022-08-05T04:39:52.986Z,66.24
2022-08-05T04:40:51.207Z,66.05
2022-08-05T04:41:51.484Z,66.24
2022-08-05T04:42:51.179Z,66.24
2022-08-05T04:43:52.188Z,66.24
2022-08-05T04:44:51.176Z,66.14
2022-08-05T04:45:55.083Z,66.24
2022-08-05T04:46:51.128Z,66.24
2022-08-05T04:47:51.129Z,66.35
2022-08-05T04:48:51.660Z,66.24
2022-08-05T04:50:01.623Z,66.44
2022-08-05T04:51:02.795Z,66.24
2022-08-05T04:51:58.262Z,66.01
2022-08-05T04:52:52.058Z,65.81
2022-08-05T04:53:51.059Z,65.61
2022-08-05T04:54:51.055Z,65.61
2022-08-05T04:56:33.446Z,65.52
2022-08-05T04:56:55.271Z,65.42
2022-08-05T04:57:54.288Z,65.42
2022-08-05T04:58:50.994Z,65.52
2022-08-05T04:59:50.959Z,65.42
2022-08-05T05:00:51.093Z,65.42
2022-08-05T05:02:06.711Z,65.28
2022-08-05T05:02:52.557Z,65.19
2022-08-05T05:03:50.920Z,65.09
2022-08-05T05:04:51.432Z,65.09
2022-08-05T05:06:39.187Z,65.19
2022-08-05T05:06:57.665Z,64.98
2022-08-05T05:07:52.853Z,65.09
2022-08-05T05:08:50.860Z,65.09
2022-08-05T05:09:50.836Z,65.09
2022-08-05T05:10:56.216Z,65.09
2022-08-05T05:11:54.166Z,65.19
2022-08-05T05:12:51.799Z,65.19
2022-08-05T05:13:50.785Z,65.39
2022-08-05T05:14:51.467Z,65.39
2022-08-05T05:15:57.395Z,65.48
2022-08-05T05:16:51.747Z,65.48
2022-08-05T05:17:56.728Z,65.48
2022-08-05T05:19:16.338Z,65.48
2022-08-05T05:19:51.712Z,65.48
2022-08-05T05:20:50.702Z,65.58
2022-08-05T05:21:50.706Z,66.01
2022-08-05T05:22:50.678Z,65.88
2022-08-05T05:24:04.292Z,66.01
2022-08-05T05:24:57.336Z,66.08
2022-08-05T05:25:51.634Z,65.98
2022-08-05T05:26:51.909Z,65.98
2022-08-05T05:27:53.729Z,65.98
2022-08-05T05:28:51.677Z,66.08
2022-08-05T05:30:04.189Z,66.08
2022-08-05T05:30:51.568Z,66.08
2022-08-05T05:31:51.074Z,65.88
2022-08-05T05:32:50.560Z,65.88
2022-08-05T05:33:58.900Z,65.98
2022-08-05T05:34:52.469Z,65.88
2022-08-05T05:35:50.510Z,65.88
2022-08-05T05:36:51.166Z,65.78
2022-08-05T05:37:59.558Z,65.45
2022-08-05T05:38:51.476Z,65.45
2022-08-05T05:39:50.502Z,65.45
2022-08-05T05:40:51.567Z,65.45
2022-08-05T05:41:53.980Z,65.45
2022-08-05T05:42:50.430Z,65.16
2022-08-05T05:43:56.722Z,65.16
2022-08-05T05:44:51.386Z,65.25
2022-08-05T05:45:50.389Z,65.06
2022-08-05T05:46:51.176Z,65.45
2022-08-05T05:48:07.047Z,65.25
2022-08-05T05:48:51.491Z,65.25
2022-08-05T05:49:52.532Z,65.16
2022-08-05T05:50:51.356Z,65.06
2022-08-05T05:51:50.803Z,64.86
2022-08-05T05:52:50.290Z,64.95
2022-08-05T05:53:57.883Z,65.06
2022-08-05T05:54:51.346Z,65.16
2022-08-05T05:55:51.395Z,65.25
2022-08-05T05:56:51.255Z,65.25
2022-08-05T05:57:53.016Z,65.25
2022-08-05T05:58:50.246Z,65.45
2022-08-05T05:59:50.206Z,65.55
2022-08-05T06:00:50.220Z,65.65
2022-08-05T06:01:57.631Z,65.75
2022-08-05T06:02:51.154Z,65.85
2022-08-05T06:04:01.255Z,65.85
2022-08-05T06:04:51.191Z,65.85
2022-08-05T06:05:53.980Z,66.05
2022-08-05T06:06:50.113Z,65.65
2022-08-05T06:07:57.511Z,65.98
2022-08-05T06:08:51.087Z,66.28
2022-08-05T06:10:01.338Z,66.08
2022-08-05T06:10:52.865Z,66.18
2022-08-05T06:12:01.070Z,66.58
2022-08-05T06:12:51.043Z,66.58
2022-08-05T06:13:50.513Z,66.78
2022-08-05T06:14:50.042Z,67.37
2022-08-05T06:16:28.784Z,68.50
2022-08-05T06:16:50.991Z,68.70
2022-08-05T06:17:52.977Z,68.90
2022-08-05T06:18:49.959Z,69.20
2022-08-05T06:19:57.220Z,69.29
2022-08-05T06:20:54.186Z,69.53
2022-08-05T06:21:50.034Z,69.43
2022-08-05T06:22:49.928Z,69.92
2022-08-05T06:23:49.953Z,69.92
2022-08-05T06:24:49.882Z,70.03
2022-08-05T06:26:12.494Z,69.92
2022-08-05T06:26:52.251Z,69.79
2022-08-05T06:28:11.727Z,70.03
2022-08-05T06:28:50.824Z,70.22
2022-08-05T06:30:04.622Z,70.42
2022-08-05T06:30:50.804Z,70.42
2022-08-05T06:31:49.798Z,70.42
2022-08-05T06:32:50.685Z,70.72
2022-08-05T06:34:07.136Z,70.72
2022-08-05T06:34:53.618Z,70.62
2022-08-05T06:36:07.066Z,70.62
2022-08-05T06:36:57.823Z,70.62
2022-08-05T06:37:57.764Z,70.48
2022-08-05T06:38:50.695Z,69.99
2022-08-05T06:39:49.686Z,69.99
2022-08-05T06:40:49.696Z,69.76
2022-08-05T06:41:49.676Z,69.79
2022-08-05T06:42:52.049Z,69.99
2022-08-05T06:43:57.714Z,70.29
2022-08-05T06:44:50.635Z,70.89
2022-08-05T06:46:06.802Z,71.31
2022-08-05T06:46:51.203Z,72.14
2022-08-05T06:48:37.107Z,72.64
2022-08-05T06:48:56.683Z,72.55
2022-08-05T06:50:00.632Z,72.41
2022-08-05T06:50:50.549Z,72.41
2022-08-05T06:51:49.545Z,72.41
2022-08-05T06:53:03.528Z,72.21
2022-08-05T06:53:53.524Z,71.98
2022-08-05T06:54:52.140Z,72.01
2022-08-05T06:55:49.487Z,71.48
2022-08-05T06:56:54.840Z,71.51
2022-08-05T06:57:57.327Z,71.42
2022-08-05T06:58:50.439Z,71.42
2022-08-05T06:59:55.079Z,71.12
2022-08-05T07:00:50.482Z,71.01
2022-08-05T07:01:52.789Z,71.01
2022-08-05T07:02:53.690Z,70.89
2022-08-05T07:03:49.397Z,70.39
2022-08-05T07:04:49.379Z,70.19
2022-08-05T07:05:49.372Z,69.85
2022-08-05T07:06:50.260Z,69.46
2022-08-05T07:07:49.353Z,68.93
2022-08-05T07:08:51.924Z,68.83
2022-08-05T07:09:58.358Z,68.73
2022-08-05T07:10:52.989Z,68.73
2022-08-05T07:11:51.708Z,68.00
2022-08-05T07:12:49.396Z,67.74
2022-08-05T07:13:59.331Z,67.83
2022-08-05T07:14:50.266Z,67.54
2022-08-05T07:16:01.023Z,67.94
2022-08-05T07:17:59.044Z,68.33
2022-08-05T07:18:01.402Z,68.37
2022-08-05T07:18:50.193Z,68.43
2022-08-05T07:20:50.179Z,69.16
2022-08-05T07:22:00.058Z,69.56
2022-08-05T07:22:50.160Z,69.76
2022-08-05T07:23:50.585Z,69.85
2022-08-05T07:24:52.453Z,69.96
2022-08-05T07:25:55.009Z,69.96
2022-08-05T07:26:50.097Z,70.09
2022-08-05T07:27:57.160Z,70.29
2022-08-05T07:28:50.077Z,70.29
2022-08-05T07:30:27.780Z,70.39
2022-08-05T07:30:52.962Z,70.39
2022-08-05T07:31:54.499Z,70.09
2022-08-05T07:32:51.040Z,69.89
2022-08-05T07:33:49.016Z,69.85
2022-08-05T07:34:48.996Z,69.76
2022-08-05T07:36:04.001Z,69.85
2022-08-05T07:36:51.316Z,69.66
2022-08-05T07:37:48.966Z,70.06
2022-08-05T07:38:49.163Z,70.45
2022-08-05T07:40:26.222Z,70.68
2022-08-05T07:40:55.533Z,71.08
2022-08-05T07:42:14.383Z,71.72
2022-08-05T07:42:49.906Z,72.01
2022-08-05T07:43:48.875Z,72.01
2022-08-05T07:44:48.872Z,72.01
2022-08-05T07:45:56.993Z,71.61
2022-08-05T07:46:50.399Z,71.81
2022-08-05T07:47:48.836Z,71.81
2022-08-05T07:49:04.225Z,71.91
2022-08-05T07:49:54.416Z,72.01
2022-08-05T07:50:49.807Z,72.21
2022-08-05T07:51:54.344Z,72.51
2022-08-05T07:52:49.787Z,72.94
2022-08-05T07:53:50.409Z,73.04
2022-08-05T07:54:49.228Z,73.24
2022-08-05T07:56:06.153Z,73.24
2022-08-05T07:57:02.477Z,73.04
2022-08-05T07:57:56.248Z,73.04
2022-08-05T07:58:57.838Z,73.04
2022-08-05T07:59:49.675Z,72.85
2022-08-05T08:00:48.728Z,72.11
2022-08-05T08:01:52.475Z,72.34
2022-08-05T08:03:14.062Z,72.25
2022-08-05T08:03:51.361Z,72.25
2022-08-05T08:04:49.425Z,72.55
2022-08-05T08:05:49.825Z,73.14
2022-08-05T08:06:48.617Z,73.34
2022-08-05T08:07:58.953Z,74.07
2022-08-05T08:08:49.583Z,74.07
2022-08-05T08:09:48.676Z,75.07
2022-08-05T08:10:48.892Z,74.87
2022-08-05T08:11:58.994Z,74.67
2022-08-05T08:12:50.019Z,74.67
2022-08-05T08:14:00.399Z,74.87
2022-08-05T08:14:49.503Z,74.77
2022-08-05T08:16:34.791Z,74.33
2022-08-05T08:16:51.229Z,74.24
2022-08-05T08:17:52.458Z,74.04
2022-08-05T08:18:49.887Z,73.24
2022-08-05T08:20:22.441Z,72.85
2022-08-05T08:21:02.504Z,72.51
2022-08-05T08:21:49.405Z,71.81
2022-08-05T08:22:48.406Z,71.81
2022-08-05T08:24:02.892Z,71.48
2022-08-05T08:24:51.945Z,70.98
2022-08-05T08:26:00.854Z,70.36
2022-08-05T08:26:49.346Z,70.15
2022-08-05T08:27:51.225Z,70.15
2022-08-05T08:28:59.094Z,69.76
2022-08-05T08:30:05.067Z,69.76
2022-08-05T08:30:49.675Z,70.06
2022-08-05T08:31:48.513Z,69.76
2022-08-05T08:32:48.325Z,69.26
2022-08-05T08:33:51.759Z,69.36
2022-08-05T08:34:48.230Z,69.85
2022-08-05T08:35:52.786Z,69.46
2022-08-05T08:36:54.008Z,69.49
2022-08-05T08:37:53.550Z,69.29
2022-08-05T08:38:53.250Z,69.49
2022-08-05T08:39:49.754Z,69.79
2022-08-05T08:40:51.619Z,69.69
2022-08-05T08:41:52.593Z,69.69
2022-08-05T08:42:51.064Z,69.99
2022-08-05T08:45:18.465Z,69.29
2022-08-05T08:45:24.099Z,69.09
2022-08-05T08:45:49.116Z,69.29
2022-08-05T08:46:48.096Z,69.29
2022-08-05T08:48:07.495Z,69.06
2022-08-05T08:49:07.737Z,68.86
2022-08-05T08:50:07.708Z,68.96
2022-08-05T08:51:03.208Z,68.66
2022-08-05T08:52:03.192Z,68.66
2022-08-05T08:52:51.716Z,68.46
2022-08-05T08:53:48.006Z,68.50
2022-08-05T08:54:47.989Z,68.90
2022-08-05T08:56:03.731Z,68.80
2022-08-05T08:56:49.616Z,69.03
2022-08-05T08:57:58.096Z,69.23
2022-08-05T08:58:48.963Z,69.62
2022-08-05T08:59:48.981Z,69.23
2022-08-05T09:00:48.000Z,70.82
2022-08-05T09:01:57.314Z,73.54
2022-08-05T09:02:48.882Z,73.47
2022-08-05T09:03:48.229Z,73.57
2022-08-05T09:05:16.786Z,74.57
2022-08-05T09:06:07.668Z,75.27
2022-08-05T09:06:49.963Z,74.57
2022-08-05T09:07:56.713Z,73.97
2022-08-05T09:08:48.792Z,73.57
2022-08-05T09:09:47.786Z,74.13
2022-08-05T09:10:47.795Z,73.44
2022-08-05T09:11:51.250Z,72.55
2022-08-05T09:12:50.924Z,73.14
2022-08-05T09:14:10.203Z,73.14
2022-08-05T09:14:56.432Z,71.45
2022-08-05T09:15:48.714Z,72.44
2022-08-05T09:16:48.965Z,72.14
2022-08-05T09:17:49.617Z,71.95
2022-08-05T09:18:47.665Z,72.05
2022-08-05T09:20:01.748Z,71.51
2022-08-05T09:20:48.655Z,70.65
2022-08-05T09:22:22.079Z,71.05
2022-08-05T09:22:51.656Z,71.35
2022-08-05T09:23:47.605Z,70.82
2022-08-05T09:24:47.698Z,70.62
2022-08-05T09:26:02.122Z,70.39
2022-08-05T09:26:48.580Z,69.69
2022-08-05T09:28:05.054Z,69.69
2022-08-05T09:28:48.541Z,69.26
2022-08-05T09:29:47.940Z,69.66
2022-08-05T09:30:47.537Z,69.85
2022-08-05T09:32:40.352Z,69.23
2022-08-05T09:32:48.495Z,69.16
2022-08-05T09:33:47.494Z,69.56
2022-08-05T09:34:47.507Z,69.46
2022-08-05T09:35:47.498Z,68.37
2022-08-05T09:36:54.655Z,68.96
2022-08-05T09:38:17.090Z,68.66
2022-08-05T09:38:48.408Z,68.96
2022-08-05T09:39:52.320Z,68.96
2022-08-05T09:40:52.625Z,68.66
2022-08-05T09:41:56.303Z,69.06
2022-08-05T09:42:48.483Z,68.50
2022-08-05T09:43:49.429Z,68.96
2022-08-05T09:44:50.564Z,68.46
2022-08-05T09:46:06.860Z,68.37
2022-08-05T09:46:53.484Z,68.50
2022-08-05T09:47:56.255Z,68.70
2022-08-05T09:48:55.406Z,68.60
2022-08-05T09:50:01.959Z,68.70
2022-08-05T09:50:48.266Z,68.60
2022-08-05T09:51:49.540Z,68.50
2022-08-05T09:52:47.295Z,67.90
2022-08-05T09:53:54.744Z,68.70
2022-08-05T09:54:48.216Z,68.10
2022-08-05T09:55:57.336Z,69.62
2022-08-05T09:56:51.825Z,69.92
2022-08-05T09:57:47.263Z,71.81
2022-08-05T09:58:47.459Z,73.60
2022-08-05T09:59:47.189Z,73.44
2022-08-05T10:00:47.147Z,74.24
2022-08-05T10:01:47.147Z,74.57
2022-08-05T10:02:47.184Z,73.38
2022-08-05T10:03:58.701Z,73.87
2022-08-05T10:04:48.097Z,74.27
2022-08-05T10:05:47.081Z,74.17
2022-08-05T10:06:54.909Z,73.47
2022-08-05T10:08:10.581Z,73.47
2022-08-05T10:08:50.371Z,73.18
2022-08-05T10:09:48.024Z,73.54
2022-08-05T10:10:48.286Z,74.04
2022-08-05T10:11:47.067Z,72.74
2022-08-05T10:12:49.283Z,72.74
2022-08-05T10:13:48.365Z,72.34
2022-08-05T10:14:46.956Z,72.41
2022-08-05T10:15:46.937Z,72.41
2022-08-05T10:16:53.113Z,72.31
2022-08-05T10:17:56.523Z,70.42
2022-08-05T10:18:48.128Z,71.31
2022-08-05T10:20:04.321Z,70.89
2022-08-05T10:20:48.526Z,70.39
2022-08-05T10:21:46.897Z,70.48
2022-08-05T10:22:48.766Z,71.08
2022-08-05T10:23:59.482Z,71.15
2022-08-05T10:24:47.835Z,68.50
2022-08-05T10:25:46.823Z,68.99
2022-08-05T10:26:52.101Z,69.59
2022-08-05T10:28:13.490Z,69.79
2022-08-05T10:28:47.879Z,70.59
2022-08-05T10:30:41.912Z,70.78
2022-08-05T10:32:49.625Z,70.78
2022-08-05T10:32:52.809Z,71.68
2022-08-05T10:33:02.200Z,70.48
2022-08-05T10:33:52.393Z,71.68
2022-08-05T10:34:47.707Z,72.08
2022-08-05T10:35:59.017Z,74.00
2022-08-05T10:36:47.744Z,73.00
2022-08-05T10:37:46.676Z,72.61
2022-08-05T10:38:46.847Z,73.30
2022-08-05T10:39:59.180Z,74.84
2022-08-05T10:40:47.688Z,74.33
2022-08-05T10:41:47.373Z,74.93
2022-08-05T10:42:46.629Z,75.23
2022-08-05T10:43:46.575Z,77.72
2022-08-05T10:44:46.627Z,74.73
2022-08-05T10:45:46.565Z,74.93
2022-08-05T10:46:46.563Z,75.13
2022-08-05T10:47:56.147Z,75.33
2022-08-05T10:48:56.381Z,76.13
2022-08-05T10:49:49.115Z,75.03
2022-08-05T10:50:47.495Z,76.23
2022-08-05T10:51:57.788Z,76.03
2022-08-05T10:52:49.721Z,75.73
2022-08-05T10:53:46.447Z,75.73
2022-08-05T10:54:46.850Z,75.73
2022-08-05T10:56:03.606Z,76.32
2022-08-05T10:56:47.429Z,76.82
2022-08-05T10:57:46.406Z,76.82
2022-08-05T10:58:49.461Z,76.92
2022-08-05T11:00:02.640Z,76.82
2022-08-05T11:00:47.363Z,76.59
2022-08-05T11:01:54.578Z,75.49
2022-08-05T11:02:50.518Z,74.69
2022-08-05T11:03:46.415Z,72.81
2022-08-05T11:04:46.313Z,73.00
2022-08-05T11:05:46.316Z,73.41
2022-08-05T11:06:46.312Z,73.50
2022-08-05T11:08:02.605Z,71.28
2022-08-05T11:08:47.274Z,71.78
2022-08-05T11:09:47.028Z,71.58
2022-08-05T11:11:00.011Z,72.77
2022-08-05T11:11:52.977Z,71.45
2022-08-05T11:12:50.882Z,69.16
2022-08-05T11:13:57.931Z,70.09
2022-08-05T11:15:11.540Z,70.55
2022-08-05T11:16:00.709Z,70.15
2022-08-05T11:16:47.707Z,69.76
2022-08-05T11:18:00.019Z,69.23
2022-08-05T11:18:47.277Z,69.20
2022-08-05T11:20:11.258Z,69.06
2022-08-05T11:20:47.113Z,68.46
2022-08-05T11:21:49.151Z,68.07
2022-08-05T11:22:54.009Z,68.70
2022-08-05T11:24:05.378Z,69.39
2022-08-05T11:24:50.696Z,69.39
2022-08-05T11:26:06.005Z,69.09
2022-08-05T11:26:49.551Z,69.39
2022-08-05T11:27:51.761Z,69.46
2022-08-05T11:28:47.015Z,69.36
2022-08-05T11:29:45.995Z,69.13
2022-08-05T11:30:45.986Z,68.43
2022-08-05T11:31:54.503Z,67.31
2022-08-05T11:32:47.940Z,67.01
2022-08-05T11:33:48.166Z,66.42
2022-08-05T11:34:47.412Z,66.85
2022-08-05T11:36:07.730Z,66.35
2022-08-05T11:36:54.120Z,66.38
2022-08-05T11:38:29.525Z,67.08
2022-08-05T11:38:51.233Z,66.55
2022-08-05T11:39:48.272Z,66.78
2022-08-05T11:40:45.880Z,66.91
2022-08-05T11:42:01.689Z,67.80
2022-08-05T11:42:46.818Z,67.67
2022-08-05T11:44:06.033Z,67.38
2022-08-05T11:44:52.919Z,67.24
2022-08-05T11:46:15.004Z,66.71
2022-08-05T11:46:58.496Z,66.12
2022-08-05T11:47:49.027Z,66.02
2022-08-05T11:48:45.768Z,66.12
2022-08-05T11:49:50.945Z,65.99
2022-08-05T11:50:46.752Z,65.20
2022-08-05T11:51:49.610Z,64.87
2022-08-05T11:52:48.212Z,64.97
2022-08-05T11:53:45.699Z,64.87
2022-08-05T11:54:48.427Z,65.46
2022-08-05T11:55:46.670Z,65.46
2022-08-05T11:56:50.049Z,64.57
2022-08-05T11:58:09.742Z,65.06
2022-08-05T11:58:51.307Z,64.80
2022-08-05T11:59:49.702Z,64.90
2022-08-05T12:00:46.939Z,65.17
2022-08-05T12:01:46.587Z,64.67
2022-08-05T12:02:45.616Z,64.17
2022-08-05T12:03:56.085Z,63.15
2022-08-05T12:04:46.549Z,62.96
2022-08-05T12:05:46.544Z,63.06
2022-08-05T12:06:48.994Z,63.06
2022-08-05T12:08:04.379Z,63.02
2022-08-05T12:08:51.065Z,61.94
2022-08-05T12:09:53.408Z,61.74
2022-08-05T12:10:46.660Z,61.41
2022-08-05T12:11:45.470Z,60.92
2022-08-05T12:12:59.259Z,60.82
2022-08-05T12:13:48.770Z,61.02
2022-08-05T12:14:47.167Z,61.02
2022-08-05T12:15:45.419Z,61.41
2022-08-05T12:16:46.388Z,61.41
2022-08-05T12:18:03.181Z,61.71
2022-08-05T12:18:49.033Z,61.08
2022-08-05T12:20:16.991Z,61.29
2022-08-05T12:20:46.360Z,61.29
2022-08-05T12:21:45.344Z,60.07
2022-08-05T12:22:46.273Z,60.27
2022-08-05T12:23:45.327Z,60.07
2022-08-05T12:24:49.584Z,59.08
2022-08-05T12:25:46.288Z,59.58
2022-08-05T12:26:45.307Z,58.78
2022-08-05T12:27:53.330Z,58.78
2022-08-05T12:28:46.453Z,59.28
2022-08-05T12:29:45.277Z,59.18
2022-08-05T12:30:46.313Z,59.28
2022-08-05T12:31:50.241Z,58.32
2022-08-05T12:32:46.208Z,58.72
2022-08-05T12:33:45.189Z,58.81
2022-08-05T12:34:45.164Z,58.91
2022-08-05T12:35:45.215Z,59.01
2022-08-05T12:36:45.182Z,58.81
2022-08-05T12:37:45.148Z,58.51
2022-08-05T12:38:45.138Z,59.31
2022-08-05T12:39:45.183Z,59.41
2022-08-05T12:40:46.109Z,59.41
2022-08-05T12:41:45.083Z,59.01
2022-08-05T12:42:45.099Z,59.08
2022-08-05T12:43:45.060Z,58.98
2022-08-05T12:44:45.047Z,58.19
2022-08-05T12:45:49.959Z,57.87
2022-08-05T12:46:46.030Z,58.16
2022-08-05T12:48:01.508Z,57.87
2022-08-05T12:48:46.015Z,57.47
2022-08-05T12:50:04.222Z,56.88
2022-08-05T12:50:45.991Z,56.51
2022-08-05T12:52:10.379Z,57.10
2022-08-05T12:52:45.993Z,57.01
2022-08-05T12:53:44.961Z,57.40